Startpagina
METAR-TAF:

METAR-TAF

Vliegvelden :

Lublin, Polen

breedte: 51-13-55N, lengte: 22-41-25E, hoogte: 203 m

Actueel weer

Dit bericht is 15 minuten geleden gemaakt, om 00:30 UTC
Wind 8 kt uit het noordoosten
Temperatuur -3°C
Vochtigheid 86%
Druk 1023 hPa
Zicht 10 km of meer
Geheel bewolkt op 900 ft

METAR: EPLB 220030Z 04008KT 9999 OVC009 M03/M05 Q1023

Tijdstip: 01:45 (00:45 UTC)

Verwachting

Dit bericht is 1 uur en het 15 minuten geleden gemaakt, om 23:30 UTC
Verwachting geldig van 22 om 00 UTC tot 22 om 09 UTC
Wind 8 kt uit het noordnoordoosten
Zicht 10 km of meer
Gebroken wolken op 2000 ft
Kans 40% :
Tijdelijke
van 22 om 00 UTC tot 22 om 09 UTC
Zicht: 4500 m
Gebroken wolken op 900 ft
lichte sneeuw, nevel

TAF: EPLB 212330Z 2200/2209 03008KT 9999 BKN020 PROB40 TEMPO 2200/2209 4500 -SN BR BKN009

Waarnemingen en weersverwachtingen van meer dan 4000 vliegvelden (METAR en TAF).

De beschikbare stations zijn de gele en rode punten op de kaart.

Ga met uw muis naar het station om de naam te zien.

Klik dan om waarnemingen en weersverwachtingen te zien.

kaart wijzigen: klik op de groene knoppen met een zwart kruis om in te zoomen, op de groene knop met een streepje om uit te zoomen of op de groene pijlen voor aangrenzende kaarten.


METAR-TAF: